Flight Track Log - Related Links

Times and Time Zones

All times are in EDT time to prevent confusion due to time zone crossing. See the QXE2633 flight status page for this flight to view local times or setup timezone preferences in your user account.

Time Position Orientation Groundspeed Altitude Reporting Facility
EDT Latitude Longitude Course Direction KTS MPH feet Rate Location/Type
Sat 05:41:00 PM 45.0385 -122.5079 173° South  Level Estimated
Sat 05:42:00 PM 44.9599 -122.4953 174° South  Level Estimated
Sat 05:43:00 PM 44.8854 -122.4835 174° South  Level Estimated
Sat 05:44:00 PM 44.8109 -122.4716 174° South  Level Estimated
Sat 05:45:00 PM 44.7365 -122.4598 174° South  Level Estimated
Sat 05:46:00 PM 44.6620 -122.4480 174° South  Level Estimated
Sat 05:47:00 PM 44.5876 -122.4363 174° South  Level Estimated
Sat 05:48:00 PM 44.5131 -122.4246 174° South  Level Estimated
Sat 05:49:00 PM 44.4386 -122.4129 174° South  Level Estimated
Sat 05:50:00 PM 44.3642 -122.4012 174° South  Level Estimated
Sat 05:51:00 PM 44.2897 -122.3896 174° South  Level Estimated
Sat 05:52:00 PM 44.2152 -122.3780 174° South  Level Estimated
Sat 05:53:00 PM 44.1407 -122.3664 174° South  Level Estimated
Sat 05:54:00 PM 44.0663 -122.3549 174° South  Level Estimated
Sat 05:55:00 PM 43.9918 -122.3433 174° South  Level Estimated
Sat 05:56:00 PM 43.9173 -122.3318 174° South  Level Estimated
Sat 05:57:00 PM 43.8429 -122.3204 174° South  Level Estimated
Sat 05:58:00 PM 43.7684 -122.3090 174° South  Level Estimated
Sat 05:59:00 PM 43.6939 -122.2976 174° South  Level Estimated
Sat 06:00:00 PM 43.6194 -122.2862 174° South  Level Estimated
Sat 06:01:00 PM 43.5449 -122.2748 174° South  Level Estimated
Sat 06:02:00 PM 43.4705 -122.2635 174° South  Level Estimated
Sat 06:03:00 PM 43.3960 -122.2522 174° South  Level Estimated
Sat 06:04:00 PM 43.3215 -122.2410 174° South  Level Estimated
Sat 06:05:00 PM 43.2470 -122.2297 174° South  Level Estimated
Sat 06:06:00 PM 43.1725 -122.2185 174° South  Level Estimated
Sat 06:07:00 PM 43.0980 -122.2074 174° South  Level Estimated
Sat 06:08:00 PM 43.0236 -122.1962 174° South  Level Estimated
Sat 06:09:00 PM 42.9491 -122.1851 174° South  Level Estimated
Sat 06:10:00 PM 42.8746 -122.1740 174° South  Level Estimated
Sat 06:11:00 PM 42.8001 -122.1629 174° South  Level Estimated
Sat 06:12:00 PM 42.7256 -122.1519 174° South  Level Estimated
Sat 06:13:00 PM 42.6511 -122.1408 174° South  Level Estimated
Sat 06:14:00 PM 42.5766 -122.1299 174° South  Level Estimated
Sat 06:15:00 PM 42.5021 -122.1189 174° South  Level Estimated
Sat 06:16:00 PM 42.4276 -122.1079 174° South  Level Estimated
Sat 06:17:00 PM 42.3531 -122.0970 174° South  Level Estimated
Sat 06:18:00 PM 42.2786 -122.0862 174° South  Level Estimated
Sat 06:19:00 PM 42.2030 -122.0751 174° South  Level Estimated
Sat 06:20:00 PM 42.1274 -122.0641 174° South  Level Estimated
Sat 06:21:00 PM 42.0518 -122.0532 174° South  Level Estimated
Sat 06:22:00 PM 41.9762 -122.0422 174° South  Level Estimated
Sat 06:23:00 PM 41.9006 -122.0313 174° South  Level Estimated
Sat 06:24:00 PM 41.8250 -122.0204 174° South  Level Estimated
Sat 06:25:00 PM 41.7494 -122.0095 174° South  Level Estimated
Sat 06:26:00 PM 41.6738 -121.9987 174° South  Level Estimated
Sat 06:27:00 PM 41.5982 -121.9879 174° South  Level Estimated
Sat 06:28:00 PM 41.5226 -121.9771 174° South  Level Estimated
Sat 06:29:00 PM 41.4470 -121.9663 174° South  Level Estimated
Sat 06:30:00 PM 41.3714 -121.9556 174° South  Level Estimated
Sat 06:31:00 PM 41.2958 -121.9449 174° South  Level Estimated
Sat 06:32:00 PM 41.2202 -121.9342 174° South  Level Estimated
Sat 06:33:00 PM 41.1446 -121.9235 174° South  Level Estimated
Sat 06:34:00 PM 41.0690 -121.9129 174° South  Level Estimated
Sat 06:35:00 PM 40.9934 -121.9023 174° South  Level Estimated
Sat 06:36:00 PM 40.9182 -121.8918 174° South  Level Estimated
Sat 06:37:00 PM 40.8422 -121.8811 174° South  Level Estimated
Sat 06:38:00 PM 40.7661 -121.8705 174° South  Level Estimated
Sat 06:39:00 PM 40.6901 -121.8599 174° South  Level Estimated
Sat 06:40:00 PM 40.6141 -121.8494 174° South  Level Estimated
Sat 06:41:00 PM 40.5380 -121.8389 174° South  Level Estimated
Sat 06:42:00 PM 40.4619 -121.8284 174° South  Level Estimated
Sat 06:43:00 PM 40.3859 -121.8179 174° South  Level Estimated
Sat 06:44:00 PM 40.3098 -121.8074 174° South  Level Estimated
Sat 06:45:00 PM 40.2338 -121.7970 174° South  Level Estimated
Sat 06:46:00 PM 40.1577 -121.7866 174° South  Level Estimated
Sat 06:47:00 PM 40.0817 -121.7762 174° South  Level Estimated
Sat 06:48:00 PM 40.0078 -121.7524 166° South  Level FlightAware
Sat 06:49:00 PM 39.9339 -121.7286 166° South  Level FlightAware
Sat 06:50:00 PM 39.8592 -121.7047 166° South  Level FlightAware
Sat 06:51:00 PM 39.7845 -121.6808 166° South  Level FlightAware
Sat 06:52:00 PM 39.7098 -121.6569 166° South  Level FlightAware
Sat 06:53:00 PM 39.6351 -121.6331 166° South  Level FlightAware
Sat 06:54:00 PM 39.5524 -121.6167 180° South  Level FlightAware
Sat 06:55:00 PM 39.4755 -121.6159 176° South  Level FlightAware
Sat 06:56:00 PM 39.3988 -121.6082 176° South  Level FlightAware
Sat 06:57:00 PM 39.3221 -121.6005 176° South  Level FlightAware
Sat 06:58:00 PM 39.2452 -121.6000 180° South  Level FlightAware
Sat 06:59:00 PM 39.1682 -121.6000 180° South  Level FlightAware
Sat 07:00:00 PM 39.0914 -121.5988 174° South  Level FlightAware
Sat 07:01:00 PM 39.0149 -121.5878 174° South  Level FlightAware
Sat 07:02:00 PM 38.9382 -121.5833 180° South  Level FlightAware
Sat 07:03:00 PM 38.8612 -121.5833 180° South  Level FlightAware
Sat 07:04:00 PM 38.7843 -121.5833 180° South  Level FlightAware
Sat 07:05:00 PM 38.7074 -121.5833 180° South  Level FlightAware
Sat 07:06:00 PM 38.6954 -121.5908 180° South  Level Estimated
Sat 07:07:00 PM 38.6954 -121.5908 180° South  Level Estimated
Sat 07:08:00 PM 38.6954 -121.5908 80° East  Level Estimated
Sat 07:09:00 PM 38.6954 -121.5908 80° East  Level Estimated
Sat 07:10:00 PM 38.6954 -121.5908 80° East  Level Estimated
Sat 07:11:00 PM 38.6954 -121.5908 80° East  Level Estimated
Sat 07:12:00 PM 38.6954 -121.5908 80° East  Level Estimated
Sat 07:13:00 PM 38.6954 -121.5908 80° East  Level Estimated
Sat 07:14:00 PM 38.6954 -121.5908 80° East  Level Estimated
Sat 07:15:00 PM 38.6954 -121.5908 80° East  Level Estimated
Sat 07:16:00 PM 38.6954 -121.5908 80° East  Level Estimated

Login

Don't have an account? Register now (free) for customized features, flight alerts, and more!